Glacier National Park, MT

15:01 MDT le 01 septembre 2014 (GMT -0600)
Cut Bank Municipal | Change Station
CLOSE
Current Station
Aéroport
Location: Cut Bank,
Altitude: 3855 ft
Stations météo à proximité

Alt. 3855 ft 48.61 °N, 112.38 °W | Updated 1 hour ago

Clear
Ciel dégagé
66 ° F
Paraît 66 ° F
N
24
Vent Variable Vent de OSO
Gusts 36 mph

Aujourd'hui
Haut(e) -- | Bas -- ° F
--% Risque de précip.
Hier
Haut(e) -- | Bas -- ° F
Precip. -- pouce
6:51 AM 8:15 PM
Lune montante, 44% visible
Pression 29.91 pouce
Visibilité 10.0 Miles terrestres
Nuages Ciel dégagé
Point de rosée 39 ° F
Humidité 37%
Précipitations 0.00 pouce
Profondeur de la couche neigeuse 0 in
UV 8 sur 12
Pollen 3.20 sur 12
Qualité de l'air Non disponible.
Flu Activity Non disponible.
METAR KCTB 011956Z AUTO 25021G31KT 10SM CLR 19/04 A2991

More Conditions Fewer Conditions

Pression 29.91 pouce
Visibilité 10.0 Miles terrestres
Nuages Ciel dégagé
Point de rosée 39 ° F
Humidité 37%
Précipitations 0.00 pouce
Profondeur de la couche neigeuse 0 in
UV 8 sur 12
Pollen 3.20 sur 12
Qualité de l'air Non disponible.
Flu Activity Non disponible.
METAR KCTB 011956Z AUTO 25021G31KT 10SM CLR 19/04 A2991

More Conditions Fewer Conditions

10-Day Weather Forecast

Almanac

Astronomie

Sep. 01, 2014 Lever Coucher
Temps réel 06:51 MDT 20:15 MDT
Crépuscule civil 06:18 MDT 20:48 MDT
Crépuscule nautique 05:38 MDT 21:27 MDT
Crépuscule astronomique 04:55 MDT 22:10 MDT
Lune 14:14 MDT 23:46 MDT
Durée de lumière visible 14h 29m
Longueur du jour
13h 24m
Tomorrow will be 3m 26s shorter.
Lune montante, 44% of the Moon is Illuminated
Aujourd'hui
Lune montante
Sep 2
Premier quartier
Sep 8
Pleine lune
Sep 15
Dernier quartier
Sep 24
Nouveau

Extrêmes aujourd'hui

State Highs State Lows

Community

WunderPhotos

Upload Photos

1,749,407 Photos téléchargées !

WunderBlogs® & News

Nearby

Épaisseur de neige

Station Depth Altitude
Flattop Mountain 0 in 6300 ft
Emery Creek 0 in 4350 ft
Noisy Basin 0 in 6040 ft
Badger Pass 0 in 6900 ft
Dupuyer Creek 0 in 5750 ft

Activité sismique

Ville Distance Mag. Time & Date
No recent earthquake activity has been reported nearby.
Minimum magnitude displayed is 2.5.

Températures des eaux côtières

Lieu Température
Aucun rapport de station

Stations météo à proximité